KGON

Groton-New London Airport

Groton (New London), Connecticut, USA
METAR KGON 181956Z 17004KT 10SM OVC024 04/02 A3003 RMK AO2 SLP169 T00440017
Observed Flight Rules
Jan-18 @ 19:56 UTC (9 minutes ago) Marginal Visual Flight Rules
Wind Visibility Clouds
170° at 4 knots 10 miles
  • Overcast at 2,400' AGL
Temperatures Readings
Current 4°C / 39°F
Dewpoint 2°C / 36°F
Humidity 87%
Altimeter 30.03" Hg
Pressure 1016.9 hPa
Elevation 3
METAR KGON 181956Z 17004KT 10SM OVC024 04/02 A3003 RMK AO2 SLP169 T00440017
Observed Flight Rules
Jan-18 @ 19:56 UTC
(9 minutes ago)
MVFR
Wind Visibility
170° at 4 knots 10 miles
Clouds
  • Overcast at 2,400' AGL
Temperature Dewpoint
4°C / 39°F 2°C / 36°F
Humidity Altimeter Pressure
87% 30.03" Hg 1016.9 hPa